Time;durP1;ratioP1;P1;durP2;ratioP2;P2;SDS_P1;SDS_P2;PMS_P1;PMS_P2;Temp;Humidity;BMP_temperature;BMP_pressure;BME280_temperature;BME280_humidity;BME280_pressure;Samples;Min_cycle;Max_cycle;Signal;HPM_P1;HPM_P2
2022/01/18 00:02:27;;;;;;;74.82;12.10;;;;;;;;;;5112042;28;20233;-68
2022/01/18 00:04:54;;;;;;;79.47;12.70;;;;;;;;;;5112033;28;20587;-68
2022/01/18 00:07:21;;;;;;;72.40;11.30;;;;;;;;;;5111564;28;20614;-68
2022/01/18 00:09:49;;;;;;;77.75;13.77;;;;;;;;;;5112376;28;20255;-68
2022/01/18 00:12:41;;;;;;;74.47;12.93;;;;;;;;;;5111970;28;20315;-68
2022/01/18 00:15:29;;;;;;;77.65;13.18;;;;;;;;;;5112080;28;20201;-68
2022/01/18 00:18:08;;;;;;;72.75;11.45;;;;;;;;;;5111857;28;20207;-68
2022/01/18 00:20:46;;;;;;;72.80;10.70;;;;;;;;;;5112099;28;20245;-68
2022/01/18 00:23:13;;;;;;;73.57;10.70;;;;;;;;;;5110019;28;20339;-68
2022/01/18 00:25:44;;;;;;;68.95;11.05;;;;;;;;;;5112273;28;20223;-68
2022/01/18 00:28:11;;;;;;;73.70;12.07;;;;;;;;;;5111428;28;20218;-68
2022/01/18 00:31:03;;;;;;;73.90;11.20;;;;;;;;;;5111783;28;20201;-68
2022/01/18 00:33:44;;;;;;;73.65;11.90;;;;;;;;;;5111770;28;20607;-68
2022/01/18 00:36:24;;;;;;;72.82;11.90;;;;;;;;;;5111817;28;20687;-68
2022/01/18 00:38:51;;;;;;;75.68;12.60;;;;;;;;;;5111766;28;20625;-68
2022/01/18 00:41:20;;;;;;;77.22;12.35;;;;;;;;;;5114246;28;20204;-68
2022/01/18 00:43:47;;;;;;;73.57;11.95;;;;;;;;;;5115711;28;20583;-68
2022/01/18 00:46:15;;;;;;;72.20;11.48;;;;;;;;;;5115986;28;20687;-68
2022/01/18 00:48:44;;;;;;;73.18;12.68;;;;;;;;;;5115812;28;20617;-68
2022/01/18 00:51:13;;;;;;;71.82;11.60;;;;;;;;;;5115387;28;20639;-68
2022/01/18 00:53:41;;;;;;;79.18;13.07;;;;;;;;;;5111003;28;20411;-68
2022/01/18 00:56:18;;;;;;;72.25;10.73;;;;;;;;;;5095059;28;20207;-68
2022/01/18 00:58:47;;;;;;;71.85;12.55;;;;;;;;;;5095060;28;20204;-68
2022/01/18 01:01:15;;;;;;;77.03;11.85;;;;;;;;;;5095303;28;20209;-69
2022/01/18 01:03:43;;;;;;;74.95;12.05;;;;;;;;;;5095135;28;20328;-68
2022/01/18 01:06:11;;;;;;;72.07;11.40;;;;;;;;;;5095008;28;20319;-68
2022/01/18 01:08:38;;;;;;;75.15;11.90;;;;;;;;;;5094621;28;20213;-68
2022/01/18 01:11:06;;;;;;;74.07;12.35;;;;;;;;;;5094734;28;20295;-68
2022/01/18 01:13:33;;;;;;;73.00;12.00;;;;;;;;;;5094669;28;20221;-68
2022/01/18 01:16:12;;;;;;;74.28;12.25;;;;;;;;;;5094555;28;20196;-68
2022/01/18 01:18:48;;;;;;;75.97;13.23;;;;;;;;;;5094623;28;20207;-68
2022/01/18 01:32:54;;;;;;;73.50;11.70;;;;;;;;;;5094740;28;20258;-68
2022/01/18 01:35:36;;;;;;;74.68;12.00;;;;;;;;;;5094322;28;20249;-69
2022/01/18 01:43:48;;;;;;;77.20;13.30;;;;;;;;;;5094352;28;20227;-69
2022/01/18 01:46:17;;;;;;;76.88;13.55;;;;;;;;;;5094225;28;20221;-68
2022/01/18 01:48:50;;;;;;;74.22;12.35;;;;;;;;;;5093993;28;20239;-68
2022/01/18 01:51:17;;;;;;;73.20;12.85;;;;;;;;;;5094029;28;20254;-69
2022/01/18 01:53:45;;;;;;;72.47;12.60;;;;;;;;;;5094495;28;20580;-69
2022/01/18 01:56:13;;;;;;;74.32;14.15;;;;;;;;;;5094003;28;20689;-68
2022/01/18 01:58:40;;;;;;;76.05;13.02;;;;;;;;;;5093695;28;20296;-68
2022/01/18 02:01:08;;;;;;;78.32;13.00;;;;;;;;;;5093937;28;20207;-68
2022/01/18 02:03:35;;;;;;;74.25;13.88;;;;;;;;;;5093725;28;20319;-68
2022/01/18 02:06:02;;;;;;;79.93;13.80;;;;;;;;;;5093716;28;20841;-68
2022/01/18 02:08:30;;;;;;;74.55;13.90;;;;;;;;;;5093519;28;20213;-69
2022/01/18 02:10:58;;;;;;;77.50;15.15;;;;;;;;;;5094028;28;20293;-68
2022/01/18 02:13:25;;;;;;;76.95;13.73;;;;;;;;;;5093840;28;20221;-68
2022/01/18 02:16:13;;;;;;;75.20;12.70;;;;;;;;;;5093736;28;20205;-68
2022/01/18 02:24:11;;;;;;;77.03;12.57;;;;;;;;;;5093659;28;20200;-69
2022/01/18 02:26:39;;;;;;;74.65;13.93;;;;;;;;;;5093558;28;20231;-68
2022/01/18 02:29:07;;;;;;;78.78;14.30;;;;;;;;;;5093296;28;20204;-68
2022/01/18 02:31:34;;;;;;;80.57;14.55;;;;;;;;;;5093352;28;20574;-68
2022/01/18 02:34:03;;;;;;;76.28;13.40;;;;;;;;;;5093342;28;20208;-69
2022/01/18 02:36:32;;;;;;;80.50;14.57;;;;;;;;;;5093210;28;20212;-68
2022/01/18 02:38:59;;;;;;;74.65;13.45;;;;;;;;;;5093137;28;20227;-68
2022/01/18 02:41:30;;;;;;;78.03;14.05;;;;;;;;;;5093254;28;20209;-68
2022/01/18 02:43:57;;;;;;;76.85;13.93;;;;;;;;;;5093152;28;20227;-68
2022/01/18 02:46:24;;;;;;;76.65;14.85;;;;;;;;;;5092829;28;20270;-68
2022/01/18 02:48:52;;;;;;;77.60;13.02;;;;;;;;;;5092719;28;20208;-69
2022/01/18 02:51:19;;;;;;;75.88;14.15;;;;;;;;;;5093107;28;20291;-68
2022/01/18 02:54:00;;;;;;;77.28;13.32;;;;;;;;;;5093126;28;20243;-68
2022/01/18 02:56:27;;;;;;;75.60;13.30;;;;;;;;;;5093337;28;20197;-69
2022/01/18 02:59:01;;;;;;;76.05;13.70;;;;;;;;;;5092836;28;20201;-68
2022/01/18 03:04:13;;;;;;;74.05;13.07;;;;;;;;;;5092335;28;20294;-68
2022/01/18 03:06:41;;;;;;;77.45;12.20;;;;;;;;;;5092729;28;20311;-68
2022/01/18 03:09:09;;;;;;;75.40;14.30;;;;;;;;;;5092339;28;20576;-68
2022/01/18 03:11:36;;;;;;;76.75;13.82;;;;;;;;;;5092539;28;20312;-68
2022/01/18 03:14:04;;;;;;;75.40;12.82;;;;;;;;;;5092510;28;20607;-68
2022/01/18 03:16:31;;;;;;;75.05;13.68;;;;;;;;;;5092442;28;20232;-68
2022/01/18 03:18:58;;;;;;;74.82;13.98;;;;;;;;;;5092374;28;20209;-69
2022/01/18 03:21:25;;;;;;;75.88;14.55;;;;;;;;;;5092532;28;20201;-68
2022/01/18 03:23:59;;;;;;;76.47;13.60;;;;;;;;;;5092336;28;20301;-68
2022/01/18 03:26:32;;;;;;;73.82;13.75;;;;;;;;;;5092134;28;20597;-68
2022/01/18 03:28:59;;;;;;;75.30;14.48;;;;;;;;;;5092115;28;20258;-68
2022/01/18 03:31:26;;;;;;;78.40;15.32;;;;;;;;;;5092317;28;20639;-68
2022/01/18 03:33:53;;;;;;;74.22;14.00;;;;;;;;;;5092333;28;20211;-68
2022/01/18 03:36:21;;;;;;;74.57;13.40;;;;;;;;;;5092254;28;20227;-68
2022/01/18 03:38:48;;;;;;;76.93;13.18;;;;;;;;;;5091197;28;20643;-68
2022/01/18 03:41:15;;;;;;;78.63;13.88;;;;;;;;;;5091404;28;20296;-68
2022/01/18 03:43:43;;;;;;;75.65;13.43;;;;;;;;;;5092265;28;20251;-68
2022/01/18 03:46:11;;;;;;;80.55;14.30;;;;;;;;;;5091876;28;20693;-68
2022/01/18 03:48:39;;;;;;;77.25;13.23;;;;;;;;;;5091910;28;20601;-68
2022/01/18 03:51:07;;;;;;;77.68;13.07;;;;;;;;;;5092024;28;20672;-68
2022/01/18 03:53:34;;;;;;;74.72;12.98;;;;;;;;;;5091845;28;20257;-68
2022/01/18 03:56:01;;;;;;;76.75;14.50;;;;;;;;;;5092152;28;20295;-68
2022/01/18 03:58:29;;;;;;;74.03;13.65;;;;;;;;;;5092054;28;20254;-68
2022/01/18 04:00:57;;;;;;;76.40;13.85;;;;;;;;;;5092024;28;20208;-68
2022/01/18 04:03:24;;;;;;;75.90;14.48;;;;;;;;;;5091834;28;20250;-68
2022/01/18 04:05:52;;;;;;;77.13;14.60;;;;;;;;;;5091875;28;20209;-68
2022/01/18 04:08:20;;;;;;;75.93;13.85;;;;;;;;;;5091596;28;20290;-68
2022/01/18 04:10:47;;;;;;;77.65;13.55;;;;;;;;;;5092014;28;20231;-68
2022/01/18 04:13:14;;;;;;;77.40;13.30;;;;;;;;;;5091610;28;20312;-69
2022/01/18 04:15:42;;;;;;;79.95;14.40;;;;;;;;;;5093226;28;20291;-68
2022/01/18 04:18:25;;;;;;;77.10;13.30;;;;;;;;;;5095599;28;20292;-69
2022/01/18 04:29:11;;;;;;;73.85;13.30;;;;;;;;;;5091557;28;20300;-68
2022/01/18 04:31:38;;;;;;;76.43;13.65;;;;;;;;;;5095744;28;20600;-68
2022/01/18 04:34:06;;;;;;;72.38;12.25;;;;;;;;;;5095786;28;20295;-68
2022/01/18 04:36:34;;;;;;;78.85;13.95;;;;;;;;;;5095596;28;20297;-68
2022/01/18 04:39:01;;;;;;;77.82;14.73;;;;;;;;;;5095308;28;20745;-68
2022/01/18 04:41:30;;;;;;;80.00;14.77;;;;;;;;;;5095381;28;20296;-68
2022/01/18 04:49:34;;;;;;;78.22;14.68;;;;;;;;;;5095325;28;20235;-68
2022/01/18 04:52:01;;;;;;;79.53;15.27;;;;;;;;;;5095680;28;20225;-68
2022/01/18 04:54:30;;;;;;;80.13;14.75;;;;;;;;;;5095525;28;20291;-68
2022/01/18 04:59:42;;;;;;;78.10;13.98;;;;;;;;;;5095560;28;20234;-68
2022/01/18 05:02:09;;;;;;;74.75;13.00;;;;;;;;;;5095324;28;20320;-68
2022/01/18 05:04:38;;;;;;;78.18;14.57;;;;;;;;;;5095608;28;20216;-69
2022/01/18 05:07:08;;;;;;;76.22;12.38;;;;;;;;;;5095480;28;20225;-68
2022/01/18 05:09:35;;;;;;;76.60;13.88;;;;;;;;;;5106146;28;20228;-68
2022/01/18 05:12:07;;;;;;;80.75;14.07;;;;;;;;;;5114454;28;20252;-68
2022/01/18 05:14:36;;;;;;;76.43;14.85;;;;;;;;;;5114626;28;20208;-68
2022/01/18 05:17:12;;;;;;;77.63;14.27;;;;;;;;;;5114680;28;20207;-68
2022/01/18 05:19:58;;;;;;;79.72;15.93;;;;;;;;;;5113981;28;20254;-68
2022/01/18 05:25:26;;;;;;;77.25;13.10;;;;;;;;;;5051143;28;20198;-68
2022/01/18 05:27:53;;;;;;;81.18;16.95;;;;;;;;;;5050120;28;20261;-68
2022/01/18 05:30:20;;;;;;;79.85;14.98;;;;;;;;;;5050777;28;20213;-68
2022/01/18 05:32:47;;;;;;;82.93;15.20;;;;;;;;;;5050525;28;20822;-68
2022/01/18 05:35:16;;;;;;;78.72;13.65;;;;;;;;;;5050756;28;20296;-68
2022/01/18 05:37:43;;;;;;;81.25;15.85;;;;;;;;;;5050275;28;20336;-68
2022/01/18 05:40:11;;;;;;;79.70;14.38;;;;;;;;;;5050519;28;20206;-68
2022/01/18 05:42:38;;;;;;;82.13;15.05;;;;;;;;;;5050476;28;20236;-68
2022/01/18 05:45:06;;;;;;;79.13;14.70;;;;;;;;;;5050600;28;20619;-68
2022/01/18 05:47:33;;;;;;;78.68;15.85;;;;;;;;;;5050213;28;20222;-68
2022/01/18 05:50:01;;;;;;;81.82;16.45;;;;;;;;;;5050364;28;20293;-68
2022/01/18 05:52:30;;;;;;;79.25;14.70;;;;;;;;;;5050430;28;20229;-68
2022/01/18 05:54:57;;;;;;;82.28;17.38;;;;;;;;;;5050456;28;20217;-68
2022/01/18 05:57:24;;;;;;;83.68;16.02;;;;;;;;;;5089612;28;20203;-68
2022/01/18 05:59:53;;;;;;;83.00;16.20;;;;;;;;;;5093081;28;20296;-68
2022/01/18 06:02:34;;;;;;;83.68;15.82;;;;;;;;;;5092879;28;20628;-68
2022/01/18 06:07:48;;;;;;;86.63;17.73;;;;;;;;;;5053537;28;1115943;-68
2022/01/18 06:10:15;;;;;;;91.45;15.23;;;;;;;;;;5093698;28;20453;-68
2022/01/18 06:12:42;;;;;;;76.97;16.13;;;;;;;;;;5093414;28;20731;-68
2022/01/18 06:15:09;;;;;;;83.68;15.98;;;;;;;;;;5093582;28;20299;-69
2022/01/18 06:17:38;;;;;;;78.07;16.35;;;;;;;;;;5093539;28;20201;-69
2022/01/18 06:20:06;;;;;;;86.03;18.10;;;;;;;;;;5093726;28;20224;-69
2022/01/18 06:22:33;;;;;;;85.60;16.90;;;;;;;;;;5093307;28;20229;-69
2022/01/18 06:25:02;;;;;;;80.85;16.25;;;;;;;;;;5093427;28;20699;-68
2022/01/18 06:27:29;;;;;;;81.53;15.18;;;;;;;;;;5093019;28;20320;-69
2022/01/18 06:29:56;;;;;;;84.88;18.50;;;;;;;;;;5093328;28;20363;-69
2022/01/18 06:32:24;;;;;;;78.63;15.27;;;;;;;;;;5093391;28;20235;-69
2022/01/18 06:34:51;;;;;;;78.40;14.95;;;;;;;;;;5093410;28;20200;-69
2022/01/18 06:37:19;;;;;;;83.95;16.10;;;;;;;;;;5092867;28;20292;-68
2022/01/18 06:39:46;;;;;;;81.07;15.38;;;;;;;;;;5092683;28;20254;-68
2022/01/18 06:42:14;;;;;;;82.00;14.77;;;;;;;;;;5092865;28;20228;-68
2022/01/18 06:44:42;;;;;;;87.40;17.15;;;;;;;;;;5093517;28;20209;-67
2022/01/18 06:47:09;;;;;;;85.05;16.85;;;;;;;;;;5093389;28;20328;-68
2022/01/18 06:49:36;;;;;;;80.38;15.00;;;;;;;;;;5093173;28;20587;-68
2022/01/18 06:52:04;;;;;;;80.05;14.85;;;;;;;;;;5092872;28;20734;-68
2022/01/18 06:54:31;;;;;;;78.55;15.38;;;;;;;;;;5092905;28;20211;-68
2022/01/18 06:56:58;;;;;;;82.53;16.33;;;;;;;;;;5092771;28;20300;-68
2022/01/18 06:59:26;;;;;;;79.88;15.20;;;;;;;;;;5092876;28;20211;-68
2022/01/18 07:01:53;;;;;;;86.50;18.48;;;;;;;;;;5092844;28;20312;-68
2022/01/18 07:04:21;;;;;;;87.60;17.85;;;;;;;;;;5092683;28;20673;-69
2022/01/18 07:06:48;;;;;;;85.95;17.20;;;;;;;;;;5092707;28;20296;-68
2022/01/18 07:09:22;;;;;;;83.35;17.92;;;;;;;;;;5092169;28;20223;-68
2022/01/18 07:11:49;;;;;;;85.32;18.50;;;;;;;;;;5092556;28;20736;-68
2022/01/18 07:14:16;;;;;;;83.00;16.67;;;;;;;;;;5092488;28;20725;-68
2022/01/18 07:16:45;;;;;;;83.47;16.67;;;;;;;;;;5092852;28;20207;-68
2022/01/18 07:19:12;;;;;;;84.78;16.80;;;;;;;;;;5092248;28;20205;-68
2022/01/18 07:21:39;;;;;;;86.15;17.90;;;;;;;;;;5092260;28;20225;-68
2022/01/18 07:24:16;;;;;;;79.97;15.60;;;;;;;;;;5092345;28;20258;-67
2022/01/18 07:26:45;;;;;;;82.18;15.65;;;;;;;;;;5092349;28;20240;-67
2022/01/18 07:29:12;;;;;;;85.05;17.90;;;;;;;;;;5092128;28;20255;-68
2022/01/18 07:31:40;;;;;;;82.35;15.70;;;;;;;;;;5092179;28;20225;-68
2022/01/18 07:34:09;;;;;;;80.18;15.15;;;;;;;;;;5092215;28;20295;-68
2022/01/18 07:36:36;;;;;;;82.03;16.20;;;;;;;;;;5092394;28;20205;-68
2022/01/18 07:39:03;;;;;;;79.78;15.63;;;;;;;;;;5092093;28;20200;-68
2022/01/18 07:41:30;;;;;;;85.13;17.13;;;;;;;;;;5092218;28;20201;-67
2022/01/18 07:43:57;;;;;;;83.35;16.38;;;;;;;;;;5092022;28;20209;-67
2022/01/18 07:46:25;;;;;;;81.85;15.48;;;;;;;;;;5092137;28;20209;-68
2022/01/18 07:48:52;;;;;;;86.93;18.13;;;;;;;;;;5091453;28;20332;-67
2022/01/18 07:51:20;;;;;;;90.70;20.92;;;;;;;;;;5092167;28;20205;-67
2022/01/18 07:53:47;;;;;;;82.55;18.90;;;;;;;;;;5091936;28;20211;-68
2022/01/18 07:56:15;;;;;;;84.35;16.95;;;;;;;;;;5091884;28;20295;-67
2022/01/18 07:58:42;;;;;;;88.57;18.92;;;;;;;;;;5091696;28;20208;-68
2022/01/18 08:01:09;;;;;;;87.80;16.73;;;;;;;;;;5092004;28;20204;-68
2022/01/18 08:03:36;;;;;;;85.95;16.85;;;;;;;;;;5091717;28;20747;-68
2022/01/18 08:06:03;;;;;;;85.40;19.20;;;;;;;;;;5091923;28;20207;-68
2022/01/18 08:08:33;;;;;;;87.28;17.88;;;;;;;;;;5091522;28;20225;-68
2022/01/18 08:11:01;;;;;;;84.50;16.92;;;;;;;;;;5091869;28;20583;-67
2022/01/18 08:13:36;;;;;;;89.40;17.73;;;;;;;;;;5091616;28;20319;-68
2022/01/18 08:16:22;;;;;;;85.60;18.08;;;;;;;;;;5091741;28;20208;-69
2022/01/18 08:18:49;;;;;;;94.95;19.38;;;;;;;;;;5091583;28;20288;-69
2022/01/18 08:21:16;;;;;;;95.68;19.65;;;;;;;;;;5091775;28;20205;-69
2022/01/18 08:23:45;;;;;;;91.13;18.27;;;;;;;;;;5092015;28;20211;-69
2022/01/18 08:26:12;;;;;;;94.72;19.55;;;;;;;;;;5091634;28;20205;-69
2022/01/18 08:28:39;;;;;;;93.20;18.20;;;;;;;;;;5091278;28;20232;-69
2022/01/18 08:31:06;;;;;;;88.60;16.70;;;;;;;;;;5091815;28;20581;-69
2022/01/18 08:33:33;;;;;;;92.22;18.50;;;;;;;;;;5091723;28;20229;-69
2022/01/18 08:36:03;;;;;;;86.55;18.25;;;;;;;;;;5091650;28;20207;-68
2022/01/18 08:38:30;;;;;;;86.97;18.95;;;;;;;;;;5091160;28;20292;-68
2022/01/18 08:40:59;;;;;;;93.50;18.48;;;;;;;;;;5091871;28;20205;-69
2022/01/18 08:43:26;;;;;;;84.78;17.40;;;;;;;;;;5091654;28;20573;-69
2022/01/18 08:45:53;;;;;;;87.53;17.80;;;;;;;;;;5091766;28;20211;-69
2022/01/18 08:48:21;;;;;;;92.55;19.38;;;;;;;;;;5091274;28;20229;-68
2022/01/18 08:50:48;;;;;;;89.25;19.10;;;;;;;;;;5091615;28;20587;-69
2022/01/18 08:53:15;;;;;;;92.60;18.30;;;;;;;;;;5091269;28;20225;-69
2022/01/18 08:55:42;;;;;;;92.05;19.17;;;;;;;;;;5091663;28;20291;-69
2022/01/18 08:58:11;;;;;;;87.00;17.40;;;;;;;;;;5103558;28;20214;-68
2022/01/18 09:00:38;;;;;;;86.13;17.05;;;;;;;;;;5111642;28;20208;-68
2022/01/18 09:03:06;;;;;;;84.85;17.10;;;;;;;;;;5115006;28;20316;-68
2022/01/18 09:05:33;;;;;;;90.27;19.40;;;;;;;;;;5115422;28;20247;-68
2022/01/18 09:08:05;;;;;;;100.40;19.60;;;;;;;;;;5114580;28;20885;-68
2022/01/18 09:10:32;;;;;;;83.13;16.80;;;;;;;;;;5115654;28;20215;-68
2022/01/18 09:12:59;;;;;;;90.28;15.93;;;;;;;;;;5115403;28;21011;-68
2022/01/18 09:15:28;;;;;;;87.95;16.83;;;;;;;;;;5115265;28;20204;-68
2022/01/18 09:17:55;;;;;;;85.55;16.75;;;;;;;;;;5115019;28;20290;-67
2022/01/18 09:20:24;;;;;;;86.20;16.20;;;;;;;;;;5115137;28;20215;-68
2022/01/18 09:22:52;;;;;;;86.13;16.25;;;;;;;;;;5115091;28;20476;-67
2022/01/18 09:25:20;;;;;;;81.97;15.47;;;;;;;;;;5115338;28;20204;-67
2022/01/18 09:27:47;;;;;;;80.40;13.70;;;;;;;;;;5114789;28;20532;-68
2022/01/18 09:30:15;;;;;;;86.80;16.80;;;;;;;;;;5115057;28;20538;-67
2022/01/18 09:32:44;;;;;;;79.33;12.83;;;;;;;;;;5114831;28;20470;-67
2022/01/18 09:35:11;;;;;;;79.50;15.43;;;;;;;;;;5114767;28;20446;-68
2022/01/18 09:37:38;;;;;;;80.37;13.90;;;;;;;;;;5114863;28;20452;-67
2022/01/18 09:40:06;;;;;;;75.20;13.40;;;;;;;;;;5114974;28;20454;-69
2022/01/18 09:42:35;;;;;;;79.77;14.57;;;;;;;;;;5116505;28;20502;-72
2022/01/18 09:45:04;;;;;;;82.13;14.50;;;;;;;;;;5115266;28;20442;-69
2022/01/18 09:47:31;;;;;;;75.17;13.57;;;;;;;;;;5099201;28;20537;-71
2022/01/18 09:50:00;;;;;;;75.67;11.67;;;;;;;;;;5094251;28;20489;-71
2022/01/18 09:52:27;;;;;;;80.07;13.50;;;;;;;;;;5093769;28;20471;-70
2022/01/18 09:54:54;;;;;;;77.83;13.53;;;;;;;;;;5094136;28;20458;-71
2022/01/18 09:57:21;;;;;;;75.97;12.77;;;;;;;;;;5093767;28;20486;-70
2022/01/18 09:59:48;;;;;;;80.97;13.10;;;;;;;;;;5094012;28;20439;-68
2022/01/18 10:02:15;;;;;;;78.63;13.80;;;;;;;;;;5093702;28;20900;-69
2022/01/18 10:04:44;;;;;;;71.70;11.13;;;;;;;;;;5094011;28;20453;-68
2022/01/18 10:07:13;;;;;;;74.77;12.80;;;;;;;;;;5093382;28;20562;-69
2022/01/18 10:09:40;;;;;;;75.10;12.83;;;;;;;;;;5093609;28;20493;-69
2022/01/18 10:12:10;;;;;;;71.90;10.50;;;;;;;;;;5093396;28;20474;-70
2022/01/18 10:14:38;;;;;;;72.40;10.90;;;;;;;;;;5093078;28;20447;-69
2022/01/18 10:17:07;;;;;;;68.73;10.33;;;;;;;;;;5093491;28;20927;-70
2022/01/18 10:19:36;;;;;;;75.30;9.97;;;;;;;;;;5101468;28;20446;-70
2022/01/18 10:22:11;;;;;;;70.10;9.87;;;;;;;;;;5113797;28;20474;-70
2022/01/18 10:24:39;;;;;;;72.40;10.17;;;;;;;;;;5113738;28;20992;-70
2022/01/18 10:27:07;;;;;;;75.20;10.93;;;;;;;;;;5113616;28;20456;-69
2022/01/18 10:29:35;;;;;;;78.73;11.23;;;;;;;;;;5114033;28;20569;-70
2022/01/18 10:32:11;;;;;;;71.33;9.57;;;;;;;;;;5113802;28;20470;-71
2022/01/18 10:35:04;;;;;;;70.17;9.53;;;;;;;;;;5113479;28;20956;-71
2022/01/18 10:37:31;;;;;;;70.77;11.13;;;;;;;;;;5114535;28;20967;-71
2022/01/18 10:40:01;;;;;;;70.20;10.17;;;;;;;;;;5115365;28;20446;-71
2022/01/18 10:42:32;;;;;;;69.53;9.90;;;;;;;;;;5113408;28;20560;-71
2022/01/18 10:45:02;;;;;;;70.23;8.97;;;;;;;;;;5113875;28;20446;-71
2022/01/18 10:47:29;;;;;;;69.57;10.23;;;;;;;;;;5113186;28;20934;-71
2022/01/18 10:49:56;;;;;;;66.40;8.87;;;;;;;;;;5113313;28;20652;-70
2022/01/18 10:52:26;;;;;;;67.00;8.33;;;;;;;;;;5111133;28;20462;-70
2022/01/18 10:54:55;;;;;;;67.50;8.43;;;;;;;;;;5113445;28;21020;-70
2022/01/18 10:57:25;;;;;;;66.83;8.43;;;;;;;;;;5112931;28;20442;-69
2022/01/18 10:59:56;;;;;;;70.13;9.10;;;;;;;;;;5113369;28;20469;-69
2022/01/18 11:02:23;;;;;;;66.87;8.97;;;;;;;;;;5113512;28;20474;-70
2022/01/18 11:04:51;;;;;;;72.13;8.63;;;;;;;;;;5112933;28;20813;-70
2022/01/18 11:07:19;;;;;;;70.47;9.20;;;;;;;;;;5112812;28;20454;-69
2022/01/18 11:09:47;;;;;;;67.80;8.00;;;;;;;;;;5113091;28;20477;-69
2022/01/18 11:12:14;;;;;;;67.93;9.17;;;;;;;;;;5112827;28;20553;-69
2022/01/18 11:14:47;;;;;;;67.10;8.23;;;;;;;;;;5112945;28;20540;-69
2022/01/18 11:17:21;;;;;;;66.77;7.70;;;;;;;;;;5112735;28;20518;-70
2022/01/18 11:19:49;;;;;;;67.60;7.77;;;;;;;;;;5113201;28;20848;-70
2022/01/18 11:22:17;;;;;;;64.47;7.00;;;;;;;;;;5112961;28;20714;-71
2022/01/18 11:24:45;;;;;;;65.90;7.37;;;;;;;;;;5110868;28;20632;-71
2022/01/18 11:27:14;;;;;;;64.60;7.07;;;;;;;;;;5112479;28;20452;-69
2022/01/18 11:29:44;;;;;;;66.10;7.30;;;;;;;;;;5112289;28;20482;-69
2022/01/18 11:32:12;;;;;;;71.03;9.03;;;;;;;;;;5112434;28;20461;-70
2022/01/18 11:34:49;;;;;;;67.73;6.40;;;;;;;;;;5112695;28;20450;-70
2022/01/18 11:37:18;;;;;;;64.07;5.77;;;;;;;;;;5112461;28;21034;-71
2022/01/18 11:39:45;;;;;;;63.97;6.40;;;;;;;;;;5112360;28;21029;-71
2022/01/18 11:42:13;;;;;;;71.10;7.17;;;;;;;;;;5112286;28;21008;-71
2022/01/18 11:44:42;;;;;;;64.47;6.27;;;;;;;;;;5112437;28;20450;-71
2022/01/18 11:47:10;;;;;;;69.70;6.43;;;;;;;;;;5112401;28;20446;-70
2022/01/18 11:49:37;;;;;;;65.80;6.10;;;;;;;;;;5112146;28;20581;-71
2022/01/18 11:52:06;;;;;;;64.87;6.13;;;;;;;;;;5112311;28;20506;-71
2022/01/18 11:54:43;;;;;;;65.10;6.50;;;;;;;;;;5112468;28;20445;-67
2022/01/18 11:57:29;;;;;;;67.17;7.77;;;;;;;;;;5112219;28;20938;-70
2022/01/18 11:59:58;;;;;;;66.83;8.03;;;;;;;;;;5112476;28;20452;-70
2022/01/18 12:02:27;;;;;;;65.17;6.77;;;;;;;;;;5112385;28;20504;-70
2022/01/18 12:05:07;;;;;;;65.90;7.37;;;;;;;;;;5111935;28;20450;-70
2022/01/18 12:07:52;;;;;;;63.70;6.60;;;;;;;;;;5111914;28;20946;-70
2022/01/18 12:10:37;;;;;;;63.77;6.70;;;;;;;;;;5102024;28;20482;-70
2022/01/18 12:13:05;;;;;;;68.30;6.60;;;;;;;;;;5111821;28;20914;-71
2022/01/18 12:15:50;;;;;;;64.13;5.97;;;;;;;;;;5111940;28;20448;-70
2022/01/18 12:18:18;;;;;;;64.40;6.03;;;;;;;;;;5111931;28;20984;-71
2022/01/18 12:20:46;;;;;;;61.77;5.80;;;;;;;;;;5112098;28;20529;-70
2022/01/18 12:23:17;;;;;;;66.00;6.40;;;;;;;;;;5111857;28;20558;-69
2022/01/18 12:25:55;;;;;;;64.50;6.00;;;;;;;;;;5112091;28;20442;-69
2022/01/18 12:28:47;;;;;;;65.83;6.30;;;;;;;;;;5111718;28;20507;-69
2022/01/18 12:31:40;;;;;;;64.17;5.53;;;;;;;;;;5112412;28;20509;-70
2022/01/18 12:34:30;;;;;;;66.97;5.93;;;;;;;;;;5111878;28;20519;-69
2022/01/18 12:36:59;;;;;;;61.40;5.50;;;;;;;;;;5115029;28;20545;-69
2022/01/18 12:39:26;;;;;;;62.47;6.40;;;;;;;;;;5116081;28;20437;-70
2022/01/18 12:41:55;;;;;;;62.97;5.07;;;;;;;;;;5115950;28;20593;-69
2022/01/18 12:44:22;;;;;;;64.77;5.33;;;;;;;;;;5116275;28;20448;-70
2022/01/18 12:46:52;;;;;;;61.80;4.20;;;;;;;;;;5128231;28;20469;-70
2022/01/18 12:49:21;;;;;;;60.30;4.10;;;;;;;;;;5134844;28;20489;-68
2022/01/18 12:51:54;;;;;;;62.30;4.00;;;;;;;;;;5133700;28;20498;-67
2022/01/18 12:54:22;;;;;;;59.90;4.27;;;;;;;;;;5135412;28;20532;-69
2022/01/18 12:56:49;;;;;;;60.80;3.40;;;;;;;;;;5135916;28;20528;-66
2022/01/18 12:59:16;;;;;;;60.83;3.97;;;;;;;;;;5133527;28;20894;-68
2022/01/18 13:01:43;;;;;;;59.27;3.83;;;;;;;;;;5134671;27;20470;-71
2022/01/18 13:04:10;;;;;;;60.80;4.40;;;;;;;;;;5135047;28;20499;-68
2022/01/18 13:06:39;;;;;;;60.40;4.73;;;;;;;;;;5135391;28;20567;-67
2022/01/18 13:09:06;;;;;;;60.13;3.93;;;;;;;;;;5134463;28;20530;-67
2022/01/18 13:11:35;;;;;;;59.77;4.20;;;;;;;;;;5133812;28;20442;-70
2022/01/18 13:14:07;;;;;;;61.47;4.40;;;;;;;;;;5134619;28;20458;-68
2022/01/18 13:27:38;;;;;;;61.90;4.67;;;;;;;;;;5117262;28;20422;-70
2022/01/18 13:30:11;;;;;;;62.10;4.77;;;;;;;;;;5117195;28;20443;-69
2022/01/18 13:32:38;;;;;;;63.20;4.80;;;;;;;;;;5118272;28;20466;-69
2022/01/18 13:35:07;;;;;;;62.20;5.53;;;;;;;;;;5116374;28;20448;-70
2022/01/18 13:37:37;;;;;;;60.67;4.40;;;;;;;;;;5115147;28;20442;-68
2022/01/18 13:40:06;;;;;;;61.50;4.17;;;;;;;;;;5115282;28;20517;-69
2022/01/18 13:42:38;;;;;;;60.20;3.80;;;;;;;;;;5115009;28;20469;-69
2022/01/18 13:45:13;;;;;;;61.20;4.10;;;;;;;;;;5114778;28;20497;-68
2022/01/18 13:47:41;;;;;;;60.07;3.60;;;;;;;;;;5114589;28;20484;-68
2022/01/18 13:50:09;;;;;;;61.30;3.30;;;;;;;;;;5114848;28;20460;-71
2022/01/18 13:52:37;;;;;;;64.83;4.00;;;;;;;;;;5114686;28;20458;-69
2022/01/18 13:55:05;;;;;;;59.90;3.77;;;;;;;;;;5114869;28;20532;-69
2022/01/18 13:57:32;;;;;;;61.10;3.33;;;;;;;;;;5114609;28;20446;-68
2022/01/18 13:59:59;;;;;;;62.13;3.93;;;;;;;;;;5114813;28;21048;-71
2022/01/18 14:02:27;;;;;;;59.90;3.57;;;;;;;;;;5114726;28;20468;-70
2022/01/18 14:05:17;;;;;;;59.67;3.10;;;;;;;;;;5114770;28;20811;-68
2022/01/18 14:07:45;;;;;;;59.30;3.60;;;;;;;;;;5110181;28;20838;-70
2022/01/18 14:10:12;;;;;;;61.00;4.10;;;;;;;;;;5114651;27;21009;-69
2022/01/18 14:12:39;;;;;;;61.13;3.80;;;;;;;;;;5114472;28;20459;-69
2022/01/18 14:15:07;;;;;;;60.90;4.47;;;;;;;;;;5114401;28;20480;-69
2022/01/18 14:17:35;;;;;;;61.73;4.00;;;;;;;;;;5114258;28;20445;-68
2022/01/18 14:20:03;;;;;;;60.77;4.30;;;;;;;;;;5114155;28;20837;-68
2022/01/18 14:22:30;;;;;;;61.07;3.90;;;;;;;;;;5114022;28;20472;-68
2022/01/18 14:25:04;;;;;;;58.97;3.33;;;;;;;;;;5114166;28;20956;-68
2022/01/18 14:27:32;;;;;;;59.50;3.70;;;;;;;;;;5113971;28;20537;-69
2022/01/18 14:30:00;;;;;;;60.30;4.13;;;;;;;;;;5114421;28;20813;-68
2022/01/18 14:32:37;;;;;;;60.07;4.33;;;;;;;;;;5114118;28;20470;-68
2022/01/18 14:35:06;;;;;;;59.40;3.70;;;;;;;;;;5113714;28;20452;-68
2022/01/18 14:37:42;;;;;;;60.17;3.90;;;;;;;;;;5113317;28;20452;-70
2022/01/18 14:40:15;;;;;;;61.10;4.33;;;;;;;;;;5120279;28;21003;-70
2022/01/18 14:42:46;;;;;;;64.80;5.83;;;;;;;;;;5117806;28;20477;-69
2022/01/18 14:48:02;;;;;;;60.97;4.10;;;;;;;;;;5108042;28;20435;-68
2022/01/18 14:50:29;;;;;;;60.07;4.43;;;;;;;;;;5113843;28;20529;-70
2022/01/18 14:52:56;;;;;;;63.77;4.77;;;;;;;;;;5113799;28;20545;-71
2022/01/18 14:55:26;;;;;;;60.27;4.40;;;;;;;;;;5113921;28;20532;-69
2022/01/18 14:57:53;;;;;;;63.10;4.87;;;;;;;;;;5113485;28;20540;-67
2022/01/18 15:00:21;;;;;;;66.47;5.03;;;;;;;;;;5113154;27;20488;-70
2022/01/18 15:02:49;;;;;;;61.03;4.53;;;;;;;;;;5114608;28;20466;-69
2022/01/18 15:05:16;;;;;;;60.80;4.13;;;;;;;;;;5119749;28;20493;-69
2022/01/18 15:07:44;;;;;;;62.90;4.63;;;;;;;;;;5130587;28;20533;-70
2022/01/18 15:10:12;;;;;;;60.37;4.23;;;;;;;;;;5129545;28;20430;-69
2022/01/18 15:12:42;;;;;;;61.47;4.50;;;;;;;;;;5127712;28;20529;-68
2022/01/18 15:15:09;;;;;;;61.07;3.87;;;;;;;;;;5128131;28;20469;-68
2022/01/18 15:17:36;;;;;;;60.83;4.40;;;;;;;;;;5126577;28;20477;-68
2022/01/18 15:20:04;;;;;;;60.27;4.20;;;;;;;;;;5128426;28;20478;-68
2022/01/18 15:22:31;;;;;;;60.27;3.90;;;;;;;;;;5130659;28;20494;-68
2022/01/18 15:24:59;;;;;;;61.00;4.07;;;;;;;;;;5112977;28;20467;-68
2022/01/18 15:27:26;;;;;;;58.73;3.20;;;;;;;;;;5112553;28;20446;-67
2022/01/18 15:29:54;;;;;;;59.93;3.37;;;;;;;;;;5112850;28;20810;-68
2022/01/18 15:32:22;;;;;;;61.10;3.80;;;;;;;;;;5112548;28;20466;-68
2022/01/18 15:34:49;;;;;;;62.60;4.60;;;;;;;;;;5112813;28;20541;-68
2022/01/18 15:37:16;;;;;;;61.67;4.60;;;;;;;;;;5112534;28;20525;-68